createdAt,value
2019-04-20T00:02:25.512Z,51.96
2019-04-20T00:04:59.217Z,50.95
2019-04-20T00:07:35.697Z,50.45
2019-04-20T00:10:13.475Z,50.41
2019-04-20T00:12:59.752Z,50.03
2019-04-20T00:15:19.703Z,50.57
2019-04-20T00:17:58.792Z,51.69
2019-04-20T00:20:32.371Z,52.28
2019-04-20T00:23:05.922Z,52.83
2019-04-20T00:26:00.458Z,53.10
2019-04-20T00:28:45.766Z,53.77
2019-04-20T00:31:19.014Z,53.74
2019-04-20T00:33:50.652Z,54.50
2019-04-20T00:36:14.395Z,55.40
2019-04-20T00:38:52.961Z,55.63
2019-04-20T00:41:24.660Z,56.48
2019-04-20T00:44:04.667Z,57.12
2019-04-20T00:46:48.657Z,57.15
2019-04-20T00:49:27.549Z,57.11
2019-04-20T00:52:17.159Z,57.57
2019-04-20T00:54:20.207Z,57.68
2019-04-20T00:57:05.760Z,57.76
2019-04-20T00:59:51.761Z,57.56
2019-04-20T01:02:21.019Z,58.05
2019-04-20T01:04:58.243Z,57.41
2019-04-20T01:07:39.474Z,56.76
2019-04-20T01:10:06.960Z,56.54
2019-04-20T01:12:42.404Z,56.20
2019-04-20T01:15:24.506Z,55.80
2019-04-20T01:17:51.653Z,55.18
2019-04-20T01:20:26.466Z,55.55
2019-04-20T01:23:09.249Z,56.07
2019-04-20T01:25:40.221Z,56.89
2019-04-20T01:28:27.727Z,56.78
2019-04-20T01:31:00.164Z,57.01
2019-04-20T01:33:31.821Z,57.62
2019-04-20T01:36:16.612Z,57.48
2019-04-20T01:38:47.377Z,57.49
2019-04-20T01:41:07.515Z,57.46
2019-04-20T01:43:41.550Z,57.53
2019-04-20T01:46:19.982Z,58.04
2019-04-20T01:48:50.654Z,58.87
2019-04-20T01:51:28.609Z,57.52
2019-04-20T01:54:24.961Z,57.18
2019-04-20T01:56:54.498Z,57.17
2019-04-20T01:59:37.090Z,58.17
2019-04-20T02:02:14.455Z,59.10
2019-04-20T02:04:49.249Z,59.34
2019-04-20T02:07:28.448Z,59.39
2019-04-20T02:10:03.108Z,59.96
2019-04-20T02:12:35.669Z,60.07
2019-04-20T02:15:20.047Z,60.48
2019-04-20T02:17:57.872Z,61.31
2019-04-20T02:20:37.605Z,61.48
2019-04-20T02:23:09.397Z,61.47
2019-04-20T02:25:31.041Z,60.96
2019-04-20T02:28:22.330Z,61.29
2019-04-20T02:31:18.489Z,61.30
2019-04-20T02:33:47.280Z,61.77
2019-04-20T02:37:08.065Z,62.32
2019-04-20T02:44:42.317Z,62.42
2019-04-20T02:47:14.911Z,62.42
2019-04-20T02:49:50.957Z,62.97
2019-04-20T02:52:32.683Z,63.39
2019-04-20T02:55:04.410Z,63.71
2019-04-20T02:57:41.607Z,63.73
2019-04-20T03:00:18.248Z,63.95
2019-04-20T03:02:27.220Z,64.16
2019-04-20T03:05:04.075Z,63.29
2019-04-20T03:07:48.014Z,63.08
2019-04-20T03:10:17.679Z,61.94
2019-04-20T03:12:57.039Z,62.27
2019-04-20T03:15:36.446Z,62.46
2019-04-20T03:18:12.388Z,62.50
2019-04-20T03:20:43.392Z,62.22
2019-04-20T03:23:39.479Z,61.31
2019-04-20T03:26:00.624Z,61.93
2019-04-20T03:28:42.973Z,62.50
2019-04-20T03:34:48.936Z,61.23
2019-04-20T03:36:49.520Z,62.17
2019-04-20T03:39:13.609Z,62.94
2019-04-20T03:41:39.438Z,62.98
2019-04-20T03:44:12.569Z,63.08
2019-04-20T03:46:51.611Z,62.99
2019-04-20T03:49:42.326Z,63.04
2019-04-20T03:52:30.056Z,62.56
2019-04-20T03:55:01.296Z,62.30
2019-04-20T03:57:57.618Z,62.79
2019-04-20T04:00:36.160Z,63.20
2019-04-20T04:03:31.801Z,63.84
2019-04-20T04:06:00.847Z,64.31
2019-04-20T04:08:29.816Z,64.67
2019-04-20T04:11:16.224Z,64.93
2019-04-20T04:13:31.454Z,65.29
2019-04-20T04:16:10.001Z,65.00
2019-04-20T04:18:44.652Z,63.76
2019-04-20T04:21:21.771Z,63.87
2019-04-20T04:24:07.424Z,64.40
2019-04-20T04:26:45.700Z,64.29
2019-04-20T04:29:27.346Z,63.11
2019-04-20T04:32:06.682Z,63.64
2019-04-20T04:34:34.729Z,63.33
2019-04-20T04:37:05.944Z,62.85
2019-04-20T04:39:46.714Z,63.08
2019-04-20T04:42:22.590Z,62.91
2019-04-20T04:44:45.935Z,62.73
2019-04-20T04:47:12.097Z,62.71
2019-04-20T04:49:56.175Z,62.27
2019-04-20T04:52:29.368Z,60.22
2019-04-20T04:55:09.542Z,57.99
2019-04-20T04:57:31.094Z,58.00
2019-04-20T05:00:10.213Z,56.86
2019-04-20T05:02:48.857Z,57.41
2019-04-20T05:05:37.011Z,59.85
2019-04-20T05:08:02.878Z,60.63
2019-04-20T05:10:28.919Z,60.87
2019-04-20T05:13:02.932Z,60.89
2019-04-20T05:15:48.454Z,61.16
2019-04-20T05:18:39.452Z,61.06
2019-04-20T05:21:11.894Z,60.80
2019-04-20T05:23:44.775Z,60.12
2019-04-20T05:26:44.786Z,59.92
2019-04-20T05:29:05.446Z,59.80
2019-04-20T05:31:40.403Z,59.73
2019-04-20T05:34:32.232Z,59.19
2019-04-20T05:37:04.738Z,58.92
2019-04-20T05:39:39.146Z,58.81
2019-04-20T05:42:20.290Z,58.36
2019-04-20T05:44:54.103Z,58.12
2019-04-20T05:47:31.557Z,57.88
2019-04-20T05:49:57.082Z,57.62
2019-04-20T05:52:58.275Z,57.02
2019-04-20T05:55:16.352Z,56.93
2019-04-20T05:57:50.769Z,56.19
2019-04-20T06:00:26.517Z,55.37
2019-04-20T06:02:57.889Z,52.96
2019-04-20T06:05:38.544Z,49.55
2019-04-20T06:08:05.182Z,48.15
2019-04-20T06:10:46.621Z,46.37
2019-04-20T06:13:18.672Z,46.36
2019-04-20T06:16:15.651Z,45.57
2019-04-20T06:19:10.227Z,41.95
2019-04-20T06:21:43.753Z,43.54
2019-04-20T06:24:29.232Z,43.71
2019-04-20T06:27:14.598Z,41.24
2019-04-20T06:29:38.045Z,42.29
2019-04-20T06:32:10.975Z,42.29
2019-04-20T06:35:08.289Z,40.70
2019-04-20T06:37:23.491Z,38.54
2019-04-20T06:40:29.276Z,39.68
2019-04-20T06:42:31.947Z,38.32
2019-04-20T06:45:09.856Z,37.07
2019-04-20T06:47:47.071Z,36.08
2019-04-20T06:50:18.195Z,39.12
2019-04-20T06:53:16.318Z,38.25
2019-04-20T06:55:48.448Z,39.47
2019-04-20T06:58:39.047Z,39.74
2019-04-20T07:01:03.705Z,38.29
2019-04-20T07:03:51.399Z,38.68
2019-04-20T07:06:29.318Z,38.31
2019-04-20T07:08:57.349Z,35.67
2019-04-20T07:11:29.203Z,37.62
2019-04-20T07:13:53.388Z,36.84
2019-04-20T07:16:46.482Z,35.36
2019-04-20T07:19:25.642Z,34.73
2019-04-20T07:22:30.091Z,37.96
2019-04-20T07:24:59.018Z,35.54
2019-04-20T07:27:29.489Z,36.95
2019-04-20T07:30:07.901Z,34.92
2019-04-20T07:32:48.541Z,34.20
2019-04-20T07:35:19.749Z,34.26
2019-04-20T07:40:25.786Z,32.40
2019-04-20T07:43:14.670Z,31.41
2019-04-20T07:45:56.516Z,32.29
2019-04-20T07:48:16.788Z,30.29
2019-04-20T07:50:40.675Z,31.12
2019-04-20T07:53:20.227Z,31.00
2019-04-20T07:56:17.722Z,30.88
2019-04-20T07:58:29.494Z,29.71
2019-04-20T08:01:24.217Z,30.36
2019-04-20T08:03:58.770Z,30.23
2019-04-20T08:06:27.319Z,29.97
2019-04-20T08:09:08.329Z,28.29
2019-04-20T08:11:55.153Z,27.99
2019-04-20T08:14:30.232Z,28.06
2019-04-20T08:17:13.993Z,27.51
2019-04-20T08:19:36.692Z,27.62
2019-04-20T08:22:15.144Z,26.02
2019-04-20T08:24:46.878Z,28.25
2019-04-20T08:27:09.165Z,30.21
2019-04-20T08:29:57.716Z,31.52
2019-04-20T08:32:51.557Z,31.18
2019-04-20T08:35:42.285Z,31.06
2019-04-20T08:38:47.303Z,30.03
2019-04-20T08:40:46.333Z,30.82
2019-04-20T08:43:34.549Z,29.86
2019-04-20T08:45:58.683Z,29.03
2019-04-20T08:48:33.271Z,30.46
2019-04-20T08:51:09.013Z,29.43
2019-04-20T08:53:41.843Z,29.64
2019-04-20T08:56:10.934Z,30.06
2019-04-20T08:58:34.048Z,29.91
2019-04-20T09:01:10.309Z,29.37
2019-04-20T09:03:55.875Z,29.05
2019-04-20T09:06:32.342Z,29.96
2019-04-20T09:09:17.338Z,29.63
2019-04-20T09:11:49.616Z,30.61
2019-04-20T09:14:21.338Z,29.73
2019-04-20T09:17:05.739Z,29.96
2019-04-20T09:19:47.932Z,30.13
2019-04-20T09:22:42.848Z,30.85
2019-04-20T09:25:42.536Z,28.60
2019-04-20T09:28:14.586Z,29.82
2019-04-20T09:30:55.832Z,29.20
2019-04-20T09:33:45.884Z,28.48
2019-04-20T09:36:34.705Z,28.35
2019-04-20T09:39:08.357Z,27.83
2019-04-20T09:41:58.972Z,29.38
2019-04-20T09:44:13.380Z,27.71
2019-04-20T09:46:51.494Z,28.46
2019-04-20T09:49:37.749Z,27.10
2019-04-20T09:52:14.555Z,26.80
2019-04-20T09:54:51.129Z,25.28
2019-04-20T09:57:30.581Z,25.69
2019-04-20T10:00:01.707Z,26.23
2019-04-20T10:02:24.928Z,25.51
2019-04-20T10:04:55.634Z,25.40
2019-04-20T10:07:33.702Z,25.68
2019-04-20T10:10:18.816Z,24.81
2019-04-20T10:12:41.944Z,24.46
2019-04-20T10:15:19.604Z,24.82
2019-04-20T10:17:51.965Z,23.74
2019-04-20T10:20:31.222Z,23.60
2019-04-20T10:23:02.579Z,23.24
2019-04-20T10:25:36.394Z,21.41
2019-04-20T10:28:11.658Z,20.44
2019-04-20T10:30:46.295Z,21.32
2019-04-20T10:33:21.746Z,20.19
2019-04-20T10:35:55.360Z,20.29
2019-04-20T10:38:34.761Z,20.67
2019-04-20T10:41:14.875Z,20.85
2019-04-20T10:43:43.252Z,20.19
2019-04-20T10:46:17.346Z,20.02
2019-04-20T10:48:53.135Z,19.61
2019-04-20T10:51:26.158Z,20.57
2019-04-20T10:54:00.465Z,19.10
2019-04-20T10:56:34.046Z,19.39
2019-04-20T10:59:07.779Z,20.00
2019-04-20T11:01:41.250Z,18.95
2019-04-20T11:04:14.886Z,18.77
2019-04-20T11:06:48.425Z,18.49
2019-04-20T11:11:54.611Z,18.88
2019-04-20T11:14:33.575Z,19.55
2019-04-20T11:17:04.419Z,18.59
2019-04-20T11:19:39.234Z,18.57
2019-04-20T11:22:13.015Z,18.67
2019-04-20T11:24:48.155Z,18.44
2019-04-20T11:27:22.518Z,18.65
2019-04-20T11:29:56.116Z,18.75
2019-04-20T11:32:30.386Z,18.36
2019-04-20T11:35:09.106Z,18.58
2019-04-20T11:37:40.303Z,19.03
2019-04-20T11:40:15.025Z,18.41
2019-04-20T11:42:49.879Z,17.75
2019-04-20T11:45:24.891Z,17.33
2019-04-20T11:47:58.513Z,17.36
2019-04-20T11:50:32.035Z,17.95
2019-04-20T11:53:05.656Z,18.32
2019-04-20T11:55:40.437Z,19.67
2019-04-20T11:58:14.485Z,19.03
2019-04-20T12:01:03.258Z,18.10
2019-04-20T12:03:41.386Z,18.10
2019-04-20T12:06:08.463Z,18.19
2019-04-20T12:08:42.684Z,18.02
2019-04-20T12:11:29.703Z,18.26
2019-04-20T12:13:52.297Z,18.20
2019-04-20T12:16:26.169Z,18.64
2019-04-20T12:19:00.158Z,18.30
2019-04-20T12:21:34.809Z,18.48
2019-04-20T12:24:08.451Z,17.90
2019-04-20T12:26:42.745Z,19.29
2019-04-20T12:29:16.332Z,18.12
2019-04-20T12:31:53.793Z,18.60
2019-04-20T12:34:26.467Z,17.42
2019-04-20T12:37:00.770Z,17.77
2019-04-20T12:39:35.356Z,17.37
2019-04-20T12:42:09.608Z,18.34
2019-04-20T12:44:44.138Z,18.64
2019-04-20T12:47:19.642Z,17.70
2019-04-20T12:49:53.750Z,17.24
2019-04-20T12:52:28.285Z,18.09
2019-04-20T12:55:04.634Z,17.66
2019-04-20T12:57:38.609Z,17.79
2019-04-20T13:00:15.303Z,16.66
2019-04-20T13:02:49.502Z,17.03
2019-04-20T13:05:23.162Z,16.31
2019-04-20T13:08:00.786Z,16.86
2019-04-20T13:10:33.563Z,16.89
2019-04-20T13:13:10.291Z,16.55
2019-04-20T13:15:46.649Z,16.63
2019-04-20T13:18:23.231Z,15.84
2019-04-20T13:20:58.774Z,15.28
2019-04-20T13:23:33.136Z,15.87
2019-04-20T13:26:08.764Z,15.19
2019-04-20T13:28:43.030Z,15.76
2019-04-20T13:31:17.803Z,16.19
2019-04-20T13:33:51.698Z,16.06
2019-04-20T13:36:26.146Z,16.31
2019-04-20T13:38:59.882Z,16.33
2019-04-20T13:41:33.729Z,16.29
2019-04-20T13:44:08.362Z,16.99
2019-04-20T13:46:42.921Z,16.23
2019-04-20T13:49:16.536Z,16.96
2019-04-20T13:51:50.851Z,16.49
2019-04-20T13:54:27.594Z,16.46
2019-04-20T13:57:01.882Z,17.66
2019-04-20T13:59:39.981Z,16.32
2019-04-20T14:02:30.908Z,16.86
2019-04-20T14:05:06.651Z,17.43
2019-04-20T14:07:41.649Z,16.68
2019-04-20T14:10:15.485Z,16.80
2019-04-20T14:12:56.552Z,16.72
2019-04-20T14:15:24.876Z,16.77
2019-04-20T14:17:59.348Z,16.46
2019-04-20T14:20:34.081Z,15.92
2019-04-20T14:23:07.607Z,16.08
2019-04-20T14:25:41.114Z,16.94
2019-04-20T14:28:15.390Z,16.62
2019-04-20T14:30:49.963Z,16.85
2019-04-20T14:33:24.227Z,16.75
2019-04-20T14:35:58.989Z,17.73
2019-04-20T14:38:33.740Z,16.61
2019-04-20T14:41:10.732Z,16.75
2019-04-20T14:43:44.707Z,16.83
2019-04-20T14:46:18.807Z,16.24
2019-04-20T14:48:52.518Z,16.34
2019-04-20T14:51:26.223Z,15.91
2019-04-20T14:54:01.286Z,15.84
2019-04-20T14:56:35.798Z,16.78
2019-04-20T14:59:29.608Z,17.29
2019-04-20T15:02:15.384Z,16.49
2019-04-20T15:04:50.316Z,17.22
2019-04-20T15:07:24.666Z,15.97
2019-04-20T15:09:58.679Z,16.47
2019-04-20T15:12:41.660Z,17.25
2019-04-20T15:15:08.508Z,17.69
2019-04-20T15:17:43.820Z,17.53
2019-04-20T15:20:19.348Z,17.83
2019-04-20T15:22:53.751Z,17.95
2019-04-20T15:25:27.791Z,15.67
2019-04-20T15:28:02.631Z,15.58
2019-04-20T15:30:36.388Z,15.92
2019-04-20T15:33:10.033Z,16.66
2019-04-20T15:35:44.198Z,16.86
2019-04-20T15:38:17.609Z,16.71
2019-04-20T15:40:51.170Z,16.25
2019-04-20T15:43:27.756Z,15.45
2019-04-20T15:46:01.185Z,15.22
2019-04-20T15:48:34.740Z,15.94
2019-04-20T15:51:08.318Z,16.99
2019-04-20T15:53:42.038Z,16.16
2019-04-20T15:56:16.539Z,14.90
2019-04-20T15:58:50.459Z,15.28
2019-04-20T16:01:26.136Z,15.50
2019-04-20T16:04:06.850Z,15.95
2019-04-20T16:06:41.184Z,15.74
2019-04-20T16:09:15.657Z,16.37
2019-04-20T16:11:50.839Z,14.79
2019-04-20T16:14:25.690Z,14.82
2019-04-20T16:17:00.710Z,15.51
2019-04-20T16:19:44.872Z,16.03
2019-04-20T16:22:10.081Z,15.30
2019-04-20T16:24:51.689Z,15.31
2019-04-20T16:27:27.723Z,15.53
2019-04-20T16:30:02.323Z,15.68
2019-04-20T16:32:36.610Z,16.29
2019-04-20T16:35:10.944Z,16.12
2019-04-20T16:37:44.877Z,15.84
2019-04-20T16:40:19.839Z,16.20
2019-04-20T16:42:54.344Z,16.27
2019-04-20T16:45:29.460Z,15.89
2019-04-20T16:48:04.706Z,15.15
2019-04-20T16:50:44.885Z,15.35
2019-04-20T16:53:19.128Z,15.16
2019-04-20T16:55:52.817Z,14.16
2019-04-20T16:58:26.326Z,14.63
2019-04-20T17:01:01.166Z,15.52
2019-04-20T17:03:44.164Z,15.71
2019-04-20T17:06:10.321Z,15.75
2019-04-20T17:08:44.813Z,16.31
2019-04-20T17:11:19.062Z,16.35
2019-04-20T17:13:56.224Z,16.22
2019-04-20T17:16:28.065Z,16.47
2019-04-20T17:19:13.615Z,15.60
2019-04-20T17:21:48.590Z,16.36
2019-04-20T17:24:22.176Z,17.31
2019-04-20T17:27:01.267Z,17.92
2019-04-20T17:29:50.120Z,18.04
2019-04-20T17:32:25.498Z,18.35
2019-04-20T17:35:14.629Z,19.04
2019-04-20T17:37:39.942Z,18.67
2019-04-20T17:40:30.077Z,18.67
2019-04-20T17:42:56.677Z,19.13
2019-04-20T17:45:35.404Z,18.88
2019-04-20T17:48:08.505Z,19.19
2019-04-20T17:50:54.566Z,19.49
2019-04-20T17:53:29.941Z,19.57
2019-04-20T17:55:54.748Z,19.83
2019-04-20T17:58:32.315Z,20.50
2019-04-20T18:01:32.974Z,20.01
2019-04-20T18:04:27.311Z,20.30
2019-04-20T18:06:47.791Z,20.51
2019-04-20T18:09:34.615Z,20.88
2019-04-20T18:11:52.026Z,20.70
2019-04-20T18:14:37.408Z,20.53
2019-04-20T18:17:30.465Z,21.06
2019-04-20T18:19:54.554Z,21.47
2019-04-20T18:22:29.635Z,22.11
2019-04-20T18:25:27.345Z,22.44
2019-04-20T18:27:57.043Z,23.08
2019-04-20T18:30:33.409Z,23.93
2019-04-20T18:32:55.642Z,24.01
2019-04-20T18:35:34.811Z,24.59
2019-04-20T18:38:10.991Z,25.07
2019-04-20T18:40:51.437Z,25.92
2019-04-20T18:43:20.505Z,24.77
2019-04-20T18:46:08.147Z,24.92
2019-04-20T18:48:48.514Z,24.51
2019-04-20T18:51:01.817Z,24.56
2019-04-20T18:53:41.148Z,25.26
2019-04-20T18:56:12.201Z,25.95
2019-04-20T18:58:47.022Z,27.79
2019-04-20T19:01:29.402Z,29.68
2019-04-20T19:03:57.292Z,31.08
2019-04-20T19:06:31.828Z,31.83
2019-04-20T19:09:09.511Z,32.63
2019-04-20T19:11:47.802Z,33.32
2019-04-20T19:14:28.581Z,34.17
2019-04-20T19:17:08.972Z,34.07
2019-04-20T19:19:52.899Z,34.23
2019-04-20T19:22:23.928Z,34.85
2019-04-20T19:24:58.004Z,35.41
2019-04-20T19:27:40.046Z,35.44
2019-04-20T19:30:23.803Z,35.95
2019-04-20T19:33:04.977Z,36.88
2019-04-20T19:35:33.548Z,36.88
2019-04-20T19:38:06.627Z,36.72
2019-04-20T19:40:45.710Z,37.57
2019-04-20T19:43:21.530Z,37.71
2019-04-20T19:46:25.561Z,37.89
2019-04-20T19:48:32.633Z,37.11
2019-04-20T19:51:22.503Z,37.76
2019-04-20T19:53:50.705Z,38.45
2019-04-20T19:56:16.625Z,38.55
2019-04-20T19:58:56.383Z,38.28
2019-04-20T20:01:15.787Z,38.49
2019-04-20T20:03:56.575Z,39.18
2019-04-20T20:06:35.445Z,39.18
2019-04-20T20:09:04.223Z,40.33
2019-04-20T20:11:40.566Z,39.96
2019-04-20T20:14:13.154Z,39.16
2019-04-20T20:17:02.674Z,40.09
2019-04-20T20:19:37.144Z,40.55
2019-04-20T20:22:10.342Z,39.96
2019-04-20T20:24:33.346Z,40.82
2019-04-20T20:27:17.148Z,40.99
2019-04-20T20:29:57.187Z,41.67
2019-04-20T20:32:31.280Z,39.91
2019-04-20T20:35:04.437Z,37.95
2019-04-20T20:37:34.786Z,37.59
2019-04-20T20:40:16.163Z,37.00
2019-04-20T20:42:52.998Z,36.87
2019-04-20T20:45:26.299Z,36.22
2019-04-20T20:48:09.205Z,36.67
2019-04-20T20:50:50.182Z,36.95
2019-04-20T20:53:15.813Z,37.45
2019-04-20T20:55:44.344Z,37.23
2019-04-20T20:58:21.195Z,37.58
2019-04-20T21:00:57.534Z,37.65
2019-04-20T21:03:32.238Z,37.95
2019-04-20T21:06:00.011Z,36.69
2019-04-20T21:08:36.246Z,37.11
2019-04-20T21:11:13.126Z,38.55
2019-04-20T21:13:47.268Z,37.88
2019-04-20T21:16:25.005Z,36.73
2019-04-20T21:19:15.985Z,36.38
2019-04-20T21:21:42.183Z,36.40
2019-04-20T21:24:15.598Z,35.76
2019-04-20T21:26:45.961Z,35.58
2019-04-20T21:29:27.361Z,35.41
2019-04-20T21:32:01.800Z,35.79
2019-04-20T21:34:33.130Z,35.99
2019-04-20T21:37:11.839Z,35.52
2019-04-20T21:39:46.463Z,35.35
2019-04-20T21:42:20.986Z,35.58
2019-04-20T21:45:05.703Z,36.67
2019-04-20T21:47:33.593Z,36.63
2019-04-20T21:50:21.636Z,36.95
2019-04-20T21:52:45.128Z,36.61
2019-04-20T21:55:16.295Z,37.01
2019-04-20T21:57:53.949Z,37.20
2019-04-20T22:00:44.570Z,37.31
2019-04-20T22:03:15.477Z,37.32
2019-04-20T22:05:50.564Z,37.26
2019-04-20T22:08:24.343Z,37.43
2019-04-20T22:10:57.922Z,38.70
2019-04-20T22:13:37.633Z,38.06
2019-04-20T22:16:11.027Z,36.11
2019-04-20T22:18:52.498Z,35.14
2019-04-20T22:21:26.444Z,35.78
2019-04-20T22:24:06.798Z,38.58
2019-04-20T22:26:39.461Z,38.80
2019-04-20T22:29:05.853Z,41.77
2019-04-20T22:31:40.272Z,41.11
2019-04-20T22:34:20.557Z,42.55
2019-04-20T22:36:50.571Z,41.92
2019-04-20T22:39:43.247Z,40.04
2019-04-20T22:42:16.157Z,38.96
2019-04-20T22:44:58.715Z,35.10
2019-04-20T22:47:28.990Z,33.90
2019-04-20T22:50:31.930Z,32.59
2019-04-20T22:52:44.337Z,32.73
2019-04-20T22:55:41.095Z,32.11
2019-04-20T22:57:57.419Z,32.42
2019-04-20T23:00:36.548Z,32.32
2019-04-20T23:02:58.782Z,32.35
2019-04-20T23:05:33.007Z,31.92
2019-04-20T23:08:06.766Z,32.13
2019-04-20T23:10:44.807Z,31.96
2019-04-20T23:13:15.800Z,32.19
2019-04-20T23:15:55.168Z,32.19
2019-04-20T23:18:26.289Z,32.81
2019-04-20T23:21:05.048Z,32.73
2019-04-20T23:23:35.737Z,32.75
2019-04-20T23:26:09.473Z,32.57
2019-04-20T23:28:49.418Z,32.81
2019-04-20T23:31:22.285Z,32.50
2019-04-20T23:33:53.999Z,32.65
2019-04-20T23:36:36.523Z,33.16
2019-04-20T23:39:04.908Z,33.10
2019-04-20T23:41:42.644Z,33.09
2019-04-20T23:44:23.038Z,33.01
2019-04-20T23:47:12.053Z,32.99
2019-04-20T23:50:05.999Z,33.16
2019-04-20T23:52:44.626Z,33.16
2019-04-20T23:55:02.022Z,32.54
2019-04-20T23:57:31.613Z,33.29
